Aldan, Pennsylvania
Current Conditions -  °F | °C
As of 12:54 AM on Friday 19 Dec 2014 (Local Time) from KPHL Reporting Station
Overcast Overcast  
Wind Chill: -1°   Ceiling: 4100
Heat Index:   Visibility: 10mi
Dew Point: -4°   Wind: 12mph
Humidity: 60%   Direction: 290°WNW
Pressure: 30.04"   Gusts: NA
Location:  39.9228°N, 75.2984°W
Report Text: KPHL 190554Z 29010KT 10SM BKN041 BKN075 OVC120 03/M04 A3004 RMK AO2 SLP170 T00331039 10033 20022 58007
Loading
Personal Weather Stations






























Interactive Weather Map New forecast layout! Learn more

10-Day Weather Forecast

Advertisements
Track Severe Weather on mobile